createdAt,value
2023-01-22T00:04:43.520Z,1616
2023-01-22T00:10:02.283Z,1622
2023-01-22T00:15:20.838Z,1623
2023-01-22T00:20:40.809Z,1634
2023-01-22T00:26:00.118Z,1646
2023-01-22T00:31:03.120Z,1655
2023-01-22T00:36:21.901Z,1660
2023-01-22T00:41:40.656Z,1672
2023-01-22T00:46:59.469Z,1681
2023-01-22T00:52:17.663Z,1685
2023-01-22T00:57:36.045Z,1678
2023-01-22T01:02:54.500Z,1675
2023-01-22T01:08:13.279Z,1682
2023-01-22T01:13:31.618Z,1690
2023-01-22T01:18:50.498Z,1686
2023-01-22T01:24:09.037Z,1679
2023-01-22T01:29:27.356Z,1677
2023-01-22T01:34:45.531Z,1692
2023-01-22T01:40:04.064Z,1677
2023-01-22T01:45:22.672Z,1686
2023-01-22T01:50:41.504Z,1680
2023-01-22T01:56:00.281Z,1677
2023-01-22T02:01:18.925Z,1686
2023-01-22T02:06:37.166Z,1687
2023-01-22T02:11:55.920Z,1681
2023-01-22T02:17:14.263Z,1683
2023-01-22T02:22:32.745Z,1732
2023-01-22T02:27:51.550Z,1772
2023-01-22T02:33:10.443Z,1787
2023-01-22T02:38:28.976Z,1807
2023-01-22T02:43:47.206Z,1808
2023-01-22T02:49:05.801Z,1824
2023-01-22T02:54:24.588Z,1832
2023-01-22T02:59:43.056Z,1842
2023-01-22T03:05:01.693Z,1835
2023-01-22T03:10:20.236Z,1834
2023-01-22T03:15:39.446Z,1831
2023-01-22T03:20:57.782Z,1839
2023-01-22T03:26:22.242Z,1841
2023-01-22T03:31:40.664Z,1849
2023-01-22T03:36:59.152Z,1836
2023-01-22T03:42:17.605Z,1822
2023-01-22T03:47:35.924Z,1811
2023-01-22T03:52:54.779Z,1817
2023-01-22T03:58:13.233Z,1813
2023-01-22T04:03:31.896Z,1809
2023-01-22T04:08:50.508Z,1804
2023-01-22T04:14:08.970Z,1813
2023-01-22T04:19:27.575Z,1822
2023-01-22T04:24:45.967Z,1829
2023-01-22T04:30:04.584Z,1827
2023-01-22T04:35:23.538Z,1828
2023-01-22T04:40:42.180Z,1820
2023-01-22T04:46:00.528Z,1834
2023-01-22T04:51:18.688Z,1840
2023-01-22T04:56:37.072Z,1833
2023-01-22T05:01:55.368Z,1834
2023-01-22T05:07:13.822Z,1833
2023-01-22T05:12:17.076Z,1834
2023-01-22T05:17:35.729Z,1835
2023-01-22T05:22:54.819Z,1852
2023-01-22T05:28:13.671Z,1856
2023-01-22T05:33:32.365Z,1901
2023-01-22T05:38:50.681Z,1885
2023-01-22T05:44:09.002Z,1839
2023-01-22T05:49:27.650Z,1831
2023-01-22T05:54:46.233Z,1816
2023-01-22T06:00:04.841Z,1821
2023-01-22T06:05:23.685Z,1823
2023-01-22T06:10:42.711Z,1836
2023-01-22T06:16:01.949Z,1836
2023-01-22T06:21:21.154Z,1842
2023-01-22T06:26:39.947Z,1829
2023-01-22T06:31:58.391Z,1822
2023-01-22T06:37:16.694Z,1807
2023-01-22T06:42:35.074Z,1811
2023-01-22T06:47:54.332Z,1830
2023-01-22T06:52:58.796Z,1837
2023-01-22T06:58:17.406Z,1838
2023-01-22T07:03:36.243Z,1817
2023-01-22T07:08:55.065Z,1803
2023-01-22T07:14:25.985Z,1772
2023-01-22T07:19:55.935Z,1764
2023-01-22T07:25:14.724Z,1749
2023-01-22T07:30:33.246Z,1737
2023-01-22T07:35:51.604Z,1720
2023-01-22T07:41:24.487Z,1709
2023-01-22T07:46:44.450Z,1700
2023-01-22T07:52:03.736Z,1682
2023-01-22T07:57:22.338Z,1675
2023-01-22T08:02:41.457Z,1647
2023-01-22T08:08:00.091Z,1638
2023-01-22T08:13:18.671Z,1642
2023-01-22T08:18:36.955Z,1635
2023-01-22T08:23:55.640Z,1639
2023-01-22T08:29:13.930Z,1636
2023-01-22T08:34:32.669Z,1625
2023-01-22T08:39:51.356Z,1622
2023-01-22T08:45:09.668Z,1576
2023-01-22T08:50:28.197Z,1526
2023-01-22T08:55:46.972Z,1497
2023-01-22T09:01:05.547Z,1376
2023-01-22T09:06:24.424Z,1302
2023-01-22T09:11:43.289Z,1251
2023-01-22T09:17:01.975Z,1198
2023-01-22T09:22:20.228Z,1135
2023-01-22T09:27:39.101Z,1135
2023-01-22T09:32:57.455Z,1188
2023-01-22T09:38:15.915Z,1213
2023-01-22T09:43:34.492Z,1256
2023-01-22T09:48:52.892Z,1269
2023-01-22T09:54:11.702Z,1254
2023-01-22T09:59:30.573Z,1227
2023-01-22T10:04:49.389Z,1215
2023-01-22T10:10:07.584Z,1191
2023-01-22T10:15:26.194Z,1185
2023-01-22T10:20:44.296Z,1175
2023-01-22T10:26:02.585Z,1171
2023-01-22T10:31:23.670Z,1160
2023-01-22T10:36:42.931Z,1161
2023-01-22T10:42:01.715Z,1148
2023-01-22T10:47:19.832Z,1147
2023-01-22T10:52:38.088Z,1145
2023-01-22T10:57:56.597Z,1144
2023-01-22T11:02:59.648Z,1149
2023-01-22T11:08:23.913Z,1145
2023-01-22T11:13:42.324Z,923
2023-01-22T11:19:00.665Z,885
2023-01-22T11:24:19.106Z,920
2023-01-22T11:29:37.502Z,920
2023-01-22T11:34:55.785Z,945
2023-01-22T11:40:14.388Z,1007
2023-01-22T11:45:32.993Z,1039
2023-01-22T11:50:53.972Z,1072
2023-01-22T11:56:12.123Z,1081
2023-01-22T12:01:31.048Z,1081
2023-01-22T12:06:49.748Z,1077
2023-01-22T12:12:08.471Z,1074
2023-01-22T12:17:27.042Z,1062
2023-01-22T12:22:45.337Z,1099
2023-01-22T12:28:04.196Z,1140
2023-01-22T12:33:22.736Z,1150
2023-01-22T12:38:41.404Z,1143
2023-01-22T12:43:44.302Z,1132
2023-01-22T12:49:02.856Z,1115
2023-01-22T12:54:21.810Z,1098
2023-01-22T12:59:40.675Z,1100
2023-01-22T13:04:59.539Z,1088
2023-01-22T13:10:18.710Z,1083
2023-01-22T13:15:38.318Z,1078
2023-01-22T13:20:56.930Z,1077
2023-01-22T13:26:15.262Z,1071
2023-01-22T13:31:18.023Z,1064
2023-01-22T13:36:36.587Z,1061
2023-01-22T13:41:55.235Z,1053
2023-01-22T13:47:13.981Z,1012
2023-01-22T13:52:32.605Z,994
2023-01-22T13:57:51.485Z,994
2023-01-22T14:03:09.906Z,1000
2023-01-22T14:08:28.710Z,1035
2023-01-22T14:13:47.606Z,1077
2023-01-22T14:19:05.987Z,1104
2023-01-22T14:24:24.310Z,1130
2023-01-22T14:29:42.616Z,1152
2023-01-22T14:35:01.154Z,1165
2023-01-22T14:40:19.986Z,1097
2023-01-22T14:45:39.416Z,1104
2023-01-22T14:50:57.968Z,1128
2023-01-22T14:56:16.691Z,1167
2023-01-22T15:01:35.569Z,1241
2023-01-22T15:06:54.109Z,1322
2023-01-22T15:17:28.583Z,1404
2023-01-22T15:22:47.035Z,1426
2023-01-22T15:28:05.377Z,1448
2023-01-22T15:33:24.278Z,1431
2023-01-22T15:38:42.759Z,1428
2023-01-22T15:44:01.134Z,1165
2023-01-22T15:49:19.757Z,1192
2023-01-22T15:54:38.547Z,1236
2023-01-22T15:59:57.227Z,1266
2023-01-22T16:05:15.636Z,1273
2023-01-22T16:10:33.905Z,1277
2023-01-22T16:15:52.284Z,1267
2023-01-22T16:21:10.997Z,1255
2023-01-22T16:26:29.955Z,1238
2023-01-22T16:31:48.989Z,1223
2023-01-22T16:37:07.738Z,1229
2023-01-22T16:42:26.118Z,1255
2023-01-22T16:47:44.485Z,1279
2023-01-22T16:53:03.358Z,1276
2023-01-22T16:58:21.709Z,1289
2023-01-22T17:03:24.261Z,1303
2023-01-22T17:08:42.896Z,1278
2023-01-22T17:14:01.933Z,1261
2023-01-22T17:19:20.535Z,1261
2023-01-22T17:24:38.915Z,1265
2023-01-22T17:29:57.530Z,1264
2023-01-22T17:35:16.214Z,1269
2023-01-22T17:40:37.159Z,1284
2023-01-22T17:45:55.814Z,1295
2023-01-22T17:51:18.516Z,1293
2023-01-22T17:56:37.052Z,1289
2023-01-22T18:01:55.612Z,1283
2023-01-22T18:07:14.626Z,1284
2023-01-22T18:12:33.827Z,1287
2023-01-22T18:17:52.477Z,1289
2023-01-22T18:23:10.510Z,1270
2023-01-22T18:28:29.114Z,1226
2023-01-22T18:33:47.289Z,1226
2023-01-22T18:39:06.372Z,1223
2023-01-22T18:44:26.314Z,1217
2023-01-22T18:49:44.923Z,1215
2023-01-22T18:55:03.330Z,1207
2023-01-22T19:00:22.240Z,1202
2023-01-22T19:05:40.745Z,1158
2023-01-22T19:10:59.626Z,1122
2023-01-22T19:16:17.984Z,1112
2023-01-22T19:21:37.025Z,1113
2023-01-22T19:26:55.974Z,1106
2023-01-22T19:32:14.543Z,1101
2023-01-22T19:37:33.236Z,1097
2023-01-22T19:42:52.130Z,1085
2023-01-22T19:48:11.106Z,1089
2023-01-22T19:53:31.829Z,1083
2023-01-22T19:58:50.634Z,1084
2023-01-22T20:04:09.507Z,1089
2023-01-22T20:09:28.313Z,1100
2023-01-22T20:14:46.871Z,1116
2023-01-22T20:20:05.233Z,1149
2023-01-22T20:25:24.515Z,1201
2023-01-22T20:30:43.775Z,1256
2023-01-22T20:36:02.391Z,1310
2023-01-22T20:41:20.950Z,1349
2023-01-22T20:46:39.671Z,1367
2023-01-22T20:51:58.263Z,1386
2023-01-22T20:57:18.345Z,1407
2023-01-22T21:02:39.013Z,1421
2023-01-22T21:07:57.632Z,1438
2023-01-22T21:13:16.471Z,1458
2023-01-22T21:18:34.852Z,1468
2023-01-22T21:23:53.470Z,1513
2023-01-22T21:29:12.430Z,1544
2023-01-22T21:34:30.689Z,1558
2023-01-22T21:39:49.320Z,1552
2023-01-22T21:45:07.706Z,1555
2023-01-22T21:50:26.004Z,1549
2023-01-22T21:55:44.634Z,1555
2023-01-22T22:01:03.079Z,1555
2023-01-22T22:06:21.571Z,1557
2023-01-22T22:11:40.446Z,1563
2023-01-22T22:16:58.513Z,1552
2023-01-22T22:22:17.554Z,1526
2023-01-22T22:27:36.374Z,1536
2023-01-22T22:32:54.657Z,1548
2023-01-22T22:38:13.051Z,1552
2023-01-22T22:43:16.324Z,1550
2023-01-22T22:48:34.916Z,1548
2023-01-22T22:53:53.787Z,1539
2023-01-22T22:58:56.505Z,1529
2023-01-22T23:04:15.183Z,1529
2023-01-22T23:09:33.878Z,1530
2023-01-22T23:14:52.242Z,1525
2023-01-22T23:20:10.534Z,1523
2023-01-22T23:25:29.174Z,1523
2023-01-22T23:30:47.758Z,1519
2023-01-22T23:36:06.616Z,1510
2023-01-22T23:41:25.522Z,1516
2023-01-22T23:46:44.121Z,1522
2023-01-22T23:52:02.803Z,1516
2023-01-22T23:57:21.737Z,1525
